sensor_id;sensor_type;location;lat;lon;timestamp;pressure;altitude;pressure_sealevel;temperature;humidity
55424;BME280;41294;42.666;23.350;2022-08-19T00:02:25;94752.22;;;22.26;75.16
55424;BME280;41294;42.666;23.350;2022-08-19T00:04:50;94755.16;;;22.41;74.51
55424;BME280;41294;42.666;23.350;2022-08-19T00:07:21;94757.31;;;22.42;74.26
55424;BME280;41294;42.666;23.350;2022-08-19T00:09:46;94763.19;;;22.41;74.52
55424;BME280;41294;42.666;23.350;2022-08-19T00:12:12;94759.78;;;22.40;74.41
55424;BME280;41294;42.666;23.350;2022-08-19T00:14:38;94755.16;;;22.41;74.48
55424;BME280;41294;42.666;23.350;2022-08-19T00:17:05;94759.16;;;22.22;75.66
55424;BME280;41294;42.666;23.350;2022-08-19T00:19:32;94764.41;;;22.27;75.57
55424;BME280;41294;42.666;23.350;2022-08-19T00:21:58;94767.09;;;22.27;75.21
55424;BME280;41294;42.666;23.350;2022-08-19T00:24:24;94772.16;;;22.18;75.85
55424;BME280;41294;42.666;23.350;2022-08-19T00:26:51;94772.38;;;22.20;75.80
55424;BME280;41294;42.666;23.350;2022-08-19T00:29:18;94772.97;;;22.13;76.21
55424;BME280;41294;42.666;23.350;2022-08-19T00:31:45;94774.41;;;22.14;76.09
55424;BME280;41294;42.666;23.350;2022-08-19T00:34:12;94774.03;;;22.10;76.49
55424;BME280;41294;42.666;23.350;2022-08-19T00:36:39;94777.28;;;22.03;76.84
55424;BME280;41294;42.666;23.350;2022-08-19T00:39:04;94769.56;;;21.99;77.31
55424;BME280;41294;42.666;23.350;2022-08-19T00:41:30;94764.94;;;22.00;77.20
55424;BME280;41294;42.666;23.350;2022-08-19T00:46:24;94766.69;;;21.97;77.64
55424;BME280;41294;42.666;23.350;2022-08-19T00:48:49;94762.22;;;21.87;78.59
55424;BME280;41294;42.666;23.350;2022-08-19T00:51:15;94768.81;;;21.73;79.80
55424;BME280;41294;42.666;23.350;2022-08-19T00:53:41;94767.84;;;21.57;81.00
55424;BME280;41294;42.666;23.350;2022-08-19T00:56:07;94767.25;;;21.64;80.73
55424;BME280;41294;42.666;23.350;2022-08-19T00:58:35;94765.63;;;21.74;80.43
55424;BME280;41294;42.666;23.350;2022-08-19T01:01:02;94765.31;;;21.78;80.42
55424;BME280;41294;42.666;23.350;2022-08-19T01:03:28;94764.00;;;21.84;79.93
55424;BME280;41294;42.666;23.350;2022-08-19T01:05:54;94765.75;;;21.82;80.08
55424;BME280;41294;42.666;23.350;2022-08-19T01:08:20;94772.59;;;21.64;81.18
55424;BME280;41294;42.666;23.350;2022-08-19T01:10:52;94772.59;;;21.64;81.22
55424;BME280;41294;42.666;23.350;2022-08-19T01:13:20;94766.16;;;21.54;81.30
55424;BME280;41294;42.666;23.350;2022-08-19T01:15:49;94769.81;;;21.57;81.76
55424;BME280;41294;42.666;23.350;2022-08-19T01:18:18;94763.47;;;21.42;82.84
55424;BME280;41294;42.666;23.350;2022-08-19T01:20:44;94768.75;;;21.47;82.65
55424;BME280;41294;42.666;23.350;2022-08-19T01:23:11;94761.41;;;21.48;82.64
55424;BME280;41294;42.666;23.350;2022-08-19T01:25:51;94762.03;;;21.41;83.31
55424;BME280;41294;42.666;23.350;2022-08-19T01:28:25;94758.72;;;21.48;82.94
55424;BME280;41294;42.666;23.350;2022-08-19T01:30:52;94766.66;;;21.40;83.29
55424;BME280;41294;42.666;23.350;2022-08-19T01:33:18;94763.84;;;21.33;83.84
55424;BME280;41294;42.666;23.350;2022-08-19T01:35:44;94771.91;;;21.46;83.41
55424;BME280;41294;42.666;23.350;2022-08-19T01:38:21;94765.75;;;21.51;82.98
55424;BME280;41294;42.666;23.350;2022-08-19T01:40:47;94763.09;;;21.51;82.74
55424;BME280;41294;42.666;23.350;2022-08-19T01:43:12;94769.00;;;21.31;84.07
55424;BME280;41294;42.666;23.350;2022-08-19T01:45:38;94765.00;;;21.37;83.66
55424;BME280;41294;42.666;23.350;2022-08-19T01:48:06;94762.63;;;21.34;83.45
55424;BME280;41294;42.666;23.350;2022-08-19T01:50:33;94759.69;;;21.19;84.56
55424;BME280;41294;42.666;23.350;2022-08-19T01:52:59;94777.00;;;21.18;84.40
55424;BME280;41294;42.666;23.350;2022-08-19T01:55:25;94771.81;;;21.20;84.32
55424;BME280;41294;42.666;23.350;2022-08-19T01:57:55;94768.06;;;21.28;84.16
55424;BME280;41294;42.666;23.350;2022-08-19T02:00:25;94767.25;;;21.33;83.72
55424;BME280;41294;42.666;23.350;2022-08-19T02:02:51;94759.47;;;21.17;84.43
55424;BME280;41294;42.666;23.350;2022-08-19T02:05:16;94770.97;;;21.30;83.54
55424;BME280;41294;42.666;23.350;2022-08-19T02:07:43;94773.34;;;21.34;83.37
55424;BME280;41294;42.666;23.350;2022-08-19T02:10:14;94773.88;;;21.14;84.34
55424;BME280;41294;42.666;23.350;2022-08-19T02:12:40;94769.91;;;21.02;85.35
55424;BME280;41294;42.666;23.350;2022-08-19T02:15:06;94770.72;;;20.97;85.28
55424;BME280;41294;42.666;23.350;2022-08-19T02:17:32;94773.25;;;21.08;85.17
55424;BME280;41294;42.666;23.350;2022-08-19T02:19:58;94767.81;;;21.13;84.55
55424;BME280;41294;42.666;23.350;2022-08-19T02:22:24;94765.22;;;21.08;84.47
55424;BME280;41294;42.666;23.350;2022-08-19T02:24:51;94769.81;;;21.07;84.52
55424;BME280;41294;42.666;23.350;2022-08-19T02:27:17;94774.88;;;21.11;84.54
55424;BME280;41294;42.666;23.350;2022-08-19T02:29:43;94772.50;;;21.07;84.50
55424;BME280;41294;42.666;23.350;2022-08-19T02:32:08;94768.81;;;21.10;84.57
55424;BME280;41294;42.666;23.350;2022-08-19T02:34:34;94776.06;;;20.97;84.98
55424;BME280;41294;42.666;23.350;2022-08-19T02:36:59;94780.97;;;20.93;85.35
55424;BME280;41294;42.666;23.350;2022-08-19T02:39:25;94771.34;;;21.03;85.11
55424;BME280;41294;42.666;23.350;2022-08-19T02:41:51;94767.03;;;21.00;84.92
55424;BME280;41294;42.666;23.350;2022-08-19T02:44:17;94773.91;;;20.95;85.38
55424;BME280;41294;42.666;23.350;2022-08-19T02:46:42;94782.72;;;20.90;85.59
55424;BME280;41294;42.666;23.350;2022-08-19T02:49:10;94787.28;;;20.77;86.72
55424;BME280;41294;42.666;23.350;2022-08-19T02:51:38;94778.94;;;20.62;87.46
55424;BME280;41294;42.666;23.350;2022-08-19T02:54:05;94788.78;;;20.72;86.92
55424;BME280;41294;42.666;23.350;2022-08-19T02:56:33;94789.81;;;20.69;87.25
55424;BME280;41294;42.666;23.350;2022-08-19T02:58:59;94789.88;;;20.64;87.47
55424;BME280;41294;42.666;23.350;2022-08-19T03:01:28;94791.50;;;20.67;87.64
55424;BME280;41294;42.666;23.350;2022-08-19T03:03:55;94792.91;;;20.73;87.59
55424;BME280;41294;42.666;23.350;2022-08-19T03:06:21;94785.81;;;20.76;87.23
55424;BME280;41294;42.666;23.350;2022-08-19T03:08:47;94795.88;;;20.70;87.55
55424;BME280;41294;42.666;23.350;2022-08-19T03:11:26;94787.50;;;20.79;87.22
55424;BME280;41294;42.666;23.350;2022-08-19T03:13:53;94789.94;;;20.59;87.80
55424;BME280;41294;42.666;23.350;2022-08-19T03:16:21;94782.84;;;20.61;87.93
55424;BME280;41294;42.666;23.350;2022-08-19T03:18:47;94782.50;;;20.70;87.25
55424;BME280;41294;42.666;23.350;2022-08-19T03:21:25;94779.66;;;20.63;87.30
55424;BME280;41294;42.666;23.350;2022-08-19T03:23:58;94772.84;;;20.43;88.82
55424;BME280;41294;42.666;23.350;2022-08-19T03:26:24;94769.06;;;20.33;89.00
55424;BME280;41294;42.666;23.350;2022-08-19T03:28:49;94781.09;;;20.45;88.68
55424;BME280;41294;42.666;23.350;2022-08-19T03:31:17;94782.69;;;20.54;87.95
55424;BME280;41294;42.666;23.350;2022-08-19T03:33:43;94776.69;;;20.48;88.33
55424;BME280;41294;42.666;23.350;2022-08-19T03:36:14;94786.03;;;20.60;87.16
55424;BME280;41294;42.666;23.350;2022-08-19T03:38:47;94785.47;;;20.24;88.95
55424;BME280;41294;42.666;23.350;2022-08-19T03:41:17;94790.09;;;20.24;89.27
55424;BME280;41294;42.666;23.350;2022-08-19T03:43:43;94793.38;;;20.35;88.94
55424;BME280;41294;42.666;23.350;2022-08-19T03:46:15;94796.88;;;20.49;88.54
55424;BME280;41294;42.666;23.350;2022-08-19T03:48:42;94798.47;;;20.57;87.75
55424;BME280;41294;42.666;23.350;2022-08-19T03:51:16;94798.66;;;20.83;87.11
55424;BME280;41294;42.666;23.350;2022-08-19T03:53:41;94801.06;;;21.36;84.33
55424;BME280;41294;42.666;23.350;2022-08-19T03:56:09;94805.22;;;21.81;82.05
55424;BME280;41294;42.666;23.350;2022-08-19T03:58:35;94805.97;;;22.21;80.12
55424;BME280;41294;42.666;23.350;2022-08-19T04:01:10;94805.72;;;22.50;78.42
55424;BME280;41294;42.666;23.350;2022-08-19T04:03:36;94815.56;;;22.81;76.72
55424;BME280;41294;42.666;23.350;2022-08-19T04:08:41;94814.66;;;23.45;74.03
55424;BME280;41294;42.666;23.350;2022-08-19T04:11:09;94820.69;;;23.18;75.22
55424;BME280;41294;42.666;23.350;2022-08-19T04:13:35;94820.25;;;23.47;74.05
55424;BME280;41294;42.666;23.350;2022-08-19T04:16:01;94822.97;;;23.88;72.26
55424;BME280;41294;42.666;23.350;2022-08-19T04:18:26;94824.00;;;24.33;70.63
55424;BME280;41294;42.666;23.350;2022-08-19T04:20:55;94824.31;;;24.50;69.59
55424;BME280;41294;42.666;23.350;2022-08-19T04:23:20;94822.00;;;24.54;69.75
55424;BME280;41294;42.666;23.350;2022-08-19T04:25:46;94816.72;;;24.69;69.14
55424;BME280;41294;42.666;23.350;2022-08-19T04:28:12;94824.06;;;25.11;67.53
55424;BME280;41294;42.666;23.350;2022-08-19T04:30:39;94832.06;;;25.54;66.07
55424;BME280;41294;42.666;23.350;2022-08-19T04:33:05;94831.97;;;25.89;65.17
55424;BME280;41294;42.666;23.350;2022-08-19T04:35:39;94825.69;;;26.09;64.26
55424;BME280;41294;42.666;23.350;2022-08-19T04:38:06;94824.59;;;26.04;64.61
55424;BME280;41294;42.666;23.350;2022-08-19T04:40:31;94821.00;;;26.17;63.68
55424;BME280;41294;42.666;23.350;2022-08-19T04:43:15;94826.97;;;26.84;61.79
55424;BME280;41294;42.666;23.350;2022-08-19T04:45:43;94820.50;;;26.87;62.22
55424;BME280;41294;42.666;23.350;2022-08-19T04:48:08;94814.97;;;27.17;61.42
55424;BME280;41294;42.666;23.350;2022-08-19T04:50:35;94820.19;;;27.54;59.72
55424;BME280;41294;42.666;23.350;2022-08-19T04:53:00;94820.44;;;27.73;59.40
55424;BME280;41294;42.666;23.350;2022-08-19T04:55:26;94819.38;;;27.69;58.67
55424;BME280;41294;42.666;23.350;2022-08-19T04:57:52;94829.84;;;28.14;57.89
55424;BME280;41294;42.666;23.350;2022-08-19T05:00:17;94831.47;;;28.41;57.30
55424;BME280;41294;42.666;23.350;2022-08-19T05:02:43;94828.38;;;28.95;56.11
55424;BME280;41294;42.666;23.350;2022-08-19T05:05:08;94823.91;;;29.07;55.32
55424;BME280;41294;42.666;23.350;2022-08-19T05:07:34;94826.38;;;29.13;54.51
55424;BME280;41294;42.666;23.350;2022-08-19T05:10:01;94835.47;;;29.51;53.86
55424;BME280;41294;42.666;23.350;2022-08-19T05:12:26;94831.63;;;29.90;53.65
55424;BME280;41294;42.666;23.350;2022-08-19T05:14:53;94834.06;;;29.86;51.75
55424;BME280;41294;42.666;23.350;2022-08-19T05:17:19;94827.63;;;30.26;51.42
55424;BME280;41294;42.666;23.350;2022-08-19T05:19:45;94821.91;;;30.22;51.02
55424;BME280;41294;42.666;23.350;2022-08-19T05:22:29;94833.00;;;30.53;49.87
55424;BME280;41294;42.666;23.350;2022-08-19T05:24:58;94828.41;;;30.55;50.72
55424;BME280;41294;42.666;23.350;2022-08-19T05:27:23;94828.56;;;31.14;48.88
55424;BME280;41294;42.666;23.350;2022-08-19T05:29:49;94829.34;;;31.64;46.58
55424;BME280;41294;42.666;23.350;2022-08-19T05:32:14;94828.56;;;30.95;46.97
55424;BME280;41294;42.666;23.350;2022-08-19T05:34:40;94834.31;;;31.08;46.69
55424;BME280;41294;42.666;23.350;2022-08-19T05:37:05;94830.72;;;31.15;47.49
55424;BME280;41294;42.666;23.350;2022-08-19T05:39:34;94827.41;;;31.36;47.11
55424;BME280;41294;42.666;23.350;2022-08-19T05:42:06;94830.22;;;31.57;45.66
55424;BME280;41294;42.666;23.350;2022-08-19T05:44:34;94828.13;;;31.85;45.91
55424;BME280;41294;42.666;23.350;2022-08-19T05:47:02;94827.47;;;32.36;44.51
55424;BME280;41294;42.666;23.350;2022-08-19T05:49:28;94827.34;;;32.55;44.25
55424;BME280;41294;42.666;23.350;2022-08-19T05:51:55;94829.09;;;32.51;43.57
55424;BME280;41294;42.666;23.350;2022-08-19T05:54:22;94814.56;;;32.78;42.55
55424;BME280;41294;42.666;23.350;2022-08-19T05:56:49;94822.28;;;32.82;42.06
55424;BME280;41294;42.666;23.350;2022-08-19T05:59:16;94819.84;;;32.65;43.07
55424;BME280;41294;42.666;23.350;2022-08-19T06:01:44;94829.06;;;32.09;43.49
55424;BME280;41294;42.666;23.350;2022-08-19T06:04:11;94834.69;;;31.43;44.57
55424;BME280;41294;42.666;23.350;2022-08-19T06:06:39;94828.63;;;29.86;48.19
55424;BME280;41294;42.666;23.350;2022-08-19T06:09:06;94829.84;;;30.02;47.44
55424;BME280;41294;42.666;23.350;2022-08-19T06:11:58;94834.53;;;31.60;45.09
55424;BME280;41294;42.666;23.350;2022-08-19T06:14:28;94836.00;;;30.85;45.36
55424;BME280;41294;42.666;23.350;2022-08-19T06:16:54;94828.78;;;31.56;44.40
55424;BME280;41294;42.666;23.350;2022-08-19T06:19:21;94828.75;;;30.23;47.40
55424;BME280;41294;42.666;23.350;2022-08-19T06:21:50;94838.44;;;30.91;46.66
55424;BME280;41294;42.666;23.350;2022-08-19T06:24:20;94840.28;;;31.35;45.41
55424;BME280;41294;42.666;23.350;2022-08-19T06:26:48;94832.56;;;30.94;45.98
55424;BME280;41294;42.666;23.350;2022-08-19T06:29:16;94831.72;;;32.18;42.87
55424;BME280;41294;42.666;23.350;2022-08-19T06:31:47;94831.03;;;30.17;46.67
55424;BME280;41294;42.666;23.350;2022-08-19T06:34:15;94830.25;;;29.19;48.80
55424;BME280;41294;42.666;23.350;2022-08-19T06:36:43;94836.84;;;29.69;48.34
55424;BME280;41294;42.666;23.350;2022-08-19T06:39:22;94825.59;;;29.82;47.68
55424;BME280;41294;42.666;23.350;2022-08-19T06:41:49;94834.81;;;30.41;46.70
55424;BME280;41294;42.666;23.350;2022-08-19T06:44:15;94833.66;;;30.44;46.58
55424;BME280;41294;42.666;23.350;2022-08-19T06:46:41;94831.75;;;31.01;45.97
55424;BME280;41294;42.666;23.350;2022-08-19T06:49:07;94832.16;;;31.84;43.57
55424;BME280;41294;42.666;23.350;2022-08-19T06:51:35;94827.75;;;31.02;45.40
55424;BME280;41294;42.666;23.350;2022-08-19T06:54:01;94836.50;;;30.36;47.36
55424;BME280;41294;42.666;23.350;2022-08-19T06:56:30;94826.91;;;29.54;49.02
55424;BME280;41294;42.666;23.350;2022-08-19T06:59:18;94841.41;;;31.42;46.15
55424;BME280;41294;42.666;23.350;2022-08-19T07:01:49;94839.31;;;29.48;49.11
55424;BME280;41294;42.666;23.350;2022-08-19T07:04:20;94837.28;;;29.05;51.72
55424;BME280;41294;42.666;23.350;2022-08-19T07:06:46;94833.25;;;29.40;50.93
55424;BME280;41294;42.666;23.350;2022-08-19T07:09:14;94845.06;;;29.18;50.81
55424;BME280;41294;42.666;23.350;2022-08-19T07:11:47;94841.72;;;29.27;50.95
55424;BME280;41294;42.666;23.350;2022-08-19T07:14:15;94838.84;;;29.42;50.34
55424;BME280;41294;42.666;23.350;2022-08-19T07:16:44;94841.56;;;29.42;50.14
55424;BME280;41294;42.666;23.350;2022-08-19T07:19:11;94840.72;;;29.49;49.98
55424;BME280;41294;42.666;23.350;2022-08-19T07:21:37;94840.66;;;30.37;48.60
55424;BME280;41294;42.666;23.350;2022-08-19T07:24:03;94840.50;;;29.90;48.99
55424;BME280;41294;42.666;23.350;2022-08-19T07:26:32;94846.34;;;31.15;46.75
55424;BME280;41294;42.666;23.350;2022-08-19T07:28:58;94845.81;;;32.66;43.97
55424;BME280;41294;42.666;23.350;2022-08-19T07:31:27;94834.19;;;32.14;44.51
55424;BME280;41294;42.666;23.350;2022-08-19T07:33:54;94838.19;;;31.74;44.73
55424;BME280;41294;42.666;23.350;2022-08-19T07:36:28;94835.13;;;31.58;45.23
55424;BME280;41294;42.666;23.350;2022-08-19T07:38:58;94830.00;;;31.15;45.68
55424;BME280;41294;42.666;23.350;2022-08-19T07:41:25;94828.75;;;32.35;44.35
55424;BME280;41294;42.666;23.350;2022-08-19T07:43:54;94833.63;;;33.20;42.68
55424;BME280;41294;42.666;23.350;2022-08-19T07:46:19;94831.66;;;33.44;42.04
55424;BME280;41294;42.666;23.350;2022-08-19T07:48:49;94827.25;;;33.82;41.43
55424;BME280;41294;42.666;23.350;2022-08-19T07:51:19;94826.44;;;34.14;40.72
55424;BME280;41294;42.666;23.350;2022-08-19T07:53:46;94833.88;;;33.79;40.31
55424;BME280;41294;42.666;23.350;2022-08-19T07:56:13;94836.75;;;34.04;40.68
55424;BME280;41294;42.666;23.350;2022-08-19T07:58:41;94827.34;;;35.01;38.95
55424;BME280;41294;42.666;23.350;2022-08-19T08:01:10;94832.00;;;36.11;37.12
55424;BME280;41294;42.666;23.350;2022-08-19T08:03:36;94832.41;;;36.46;36.98
55424;BME280;41294;42.666;23.350;2022-08-19T08:06:20;94830.31;;;36.87;35.24
55424;BME280;41294;42.666;23.350;2022-08-19T08:09:04;94825.09;;;36.50;36.15
55424;BME280;41294;42.666;23.350;2022-08-19T08:11:36;94819.19;;;35.77;36.67
55424;BME280;41294;42.666;23.350;2022-08-19T08:14:02;94824.97;;;35.56;37.52
55424;BME280;41294;42.666;23.350;2022-08-19T08:16:28;94826.19;;;36.18;36.63
55424;BME280;41294;42.666;23.350;2022-08-19T08:18:56;94822.16;;;35.81;36.59
55424;BME280;41294;42.666;23.350;2022-08-19T08:21:22;94809.59;;;36.03;36.33
55424;BME280;41294;42.666;23.350;2022-08-19T08:23:47;94808.81;;;36.01;36.44
55424;BME280;41294;42.666;23.350;2022-08-19T08:26:13;94811.25;;;36.08;37.07
55424;BME280;41294;42.666;23.350;2022-08-19T08:28:39;94804.13;;;36.30;35.65
55424;BME280;41294;42.666;23.350;2022-08-19T08:31:04;94805.84;;;36.64;35.56
55424;BME280;41294;42.666;23.350;2022-08-19T08:33:30;94809.38;;;36.93;35.09
55424;BME280;41294;42.666;23.350;2022-08-19T08:35:56;94809.25;;;37.33;34.19
55424;BME280;41294;42.666;23.350;2022-08-19T08:38:21;94802.81;;;36.58;35.54
55424;BME280;41294;42.666;23.350;2022-08-19T08:40:53;94801.34;;;36.70;35.18
55424;BME280;41294;42.666;23.350;2022-08-19T08:43:30;94797.03;;;36.52;35.60
55424;BME280;41294;42.666;23.350;2022-08-19T08:46:13;94797.78;;;36.81;35.25
55424;BME280;41294;42.666;23.350;2022-08-19T08:51:52;94791.78;;;37.42;35.28
55424;BME280;41294;42.666;23.350;2022-08-19T08:54:24;94783.03;;;38.07;33.62
55424;BME280;41294;42.666;23.350;2022-08-19T08:56:53;94788.25;;;38.01;34.20
55424;BME280;41294;42.666;23.350;2022-08-19T08:59:28;94785.50;;;38.65;32.86
55424;BME280;41294;42.666;23.350;2022-08-19T09:01:56;94782.91;;;36.30;34.45
55424;BME280;41294;42.666;23.350;2022-08-19T09:04:21;94777.06;;;35.57;35.66
55424;BME280;41294;42.666;23.350;2022-08-19T09:09:43;94772.66;;;37.15;32.62
55424;BME280;41294;42.666;23.350;2022-08-19T09:15:02;94767.03;;;36.98;31.75
55424;BME280;41294;42.666;23.350;2022-08-19T09:17:30;94771.75;;;37.71;30.80
55424;BME280;41294;42.666;23.350;2022-08-19T09:22:34;94763.94;;;38.44;29.60
55424;BME280;41294;42.666;23.350;2022-08-19T09:24:59;94758.47;;;38.62;29.87
55424;BME280;41294;42.666;23.350;2022-08-19T09:27:26;94757.63;;;39.44;28.74
55424;BME280;41294;42.666;23.350;2022-08-19T09:29:52;94760.94;;;39.41;28.41
55424;BME280;41294;42.666;23.350;2022-08-19T09:32:20;94750.56;;;38.70;28.41
55424;BME280;41294;42.666;23.350;2022-08-19T09:34:45;94742.84;;;38.83;28.07
55424;BME280;41294;42.666;23.350;2022-08-19T09:37:11;94751.28;;;38.87;28.48
55424;BME280;41294;42.666;23.350;2022-08-19T09:39:38;94742.28;;;39.04;27.43
55424;BME280;41294;42.666;23.350;2022-08-19T09:42:06;94743.78;;;38.22;27.93
55424;BME280;41294;42.666;23.350;2022-08-19T09:44:37;94749.66;;;36.94;28.82
55424;BME280;41294;42.666;23.350;2022-08-19T09:47:02;94738.25;;;37.14;28.40
55424;BME280;41294;42.666;23.350;2022-08-19T09:49:30;94741.53;;;35.59;30.48
55424;BME280;41294;42.666;23.350;2022-08-19T09:51:56;94740.31;;;36.43;29.68
55424;BME280;41294;42.666;23.350;2022-08-19T09:54:21;94735.13;;;36.78;29.23
55424;BME280;41294;42.666;23.350;2022-08-19T09:56:47;94732.06;;;36.56;28.85
55424;BME280;41294;42.666;23.350;2022-08-19T09:59:12;94730.47;;;37.24;27.87
55424;BME280;41294;42.666;23.350;2022-08-19T10:01:38;94726.75;;;36.60;29.01
55424;BME280;41294;42.666;23.350;2022-08-19T10:04:04;94725.06;;;36.40;29.35
55424;BME280;41294;42.666;23.350;2022-08-19T10:06:35;94721.59;;;36.82;29.80
55424;BME280;41294;42.666;23.350;2022-08-19T10:09:01;94724.22;;;37.37;28.24
55424;BME280;41294;42.666;23.350;2022-08-19T10:11:29;94724.56;;;37.76;28.19
55424;BME280;41294;42.666;23.350;2022-08-19T10:13:55;94711.00;;;37.65;27.61
55424;BME280;41294;42.666;23.350;2022-08-19T10:16:22;94711.69;;;36.19;28.86
55424;BME280;41294;42.666;23.350;2022-08-19T10:18:48;94713.72;;;36.18;29.73
55424;BME280;41294;42.666;23.350;2022-08-19T10:21:26;94716.53;;;34.77;31.30
55424;BME280;41294;42.666;23.350;2022-08-19T10:23:54;94714.00;;;34.08;31.93
55424;BME280;41294;42.666;23.350;2022-08-19T10:26:26;94708.25;;;34.04;32.48
55424;BME280;41294;42.666;23.350;2022-08-19T10:28:52;94710.88;;;34.14;32.28
55424;BME280;41294;42.666;23.350;2022-08-19T10:31:20;94697.72;;;33.42;33.24
55424;BME280;41294;42.666;23.350;2022-08-19T10:33:47;94699.38;;;33.81;32.86
55424;BME280;41294;42.666;23.350;2022-08-19T10:36:16;94689.50;;;34.10;32.58
55424;BME280;41294;42.666;23.350;2022-08-19T10:38:43;94694.72;;;35.04;31.74
55424;BME280;41294;42.666;23.350;2022-08-19T10:41:19;94689.50;;;35.34;30.40
55424;BME280;41294;42.666;23.350;2022-08-19T10:43:47;94692.03;;;35.17;31.08
55424;BME280;41294;42.666;23.350;2022-08-19T10:46:14;94693.63;;;35.60;31.29
55424;BME280;41294;42.666;23.350;2022-08-19T10:48:41;94686.72;;;36.55;31.10
55424;BME280;41294;42.666;23.350;2022-08-19T10:51:07;94688.38;;;36.76;29.55
55424;BME280;41294;42.666;23.350;2022-08-19T10:53:52;94693.06;;;37.02;29.63
55424;BME280;41294;42.666;23.350;2022-08-19T10:56:18;94690.44;;;37.35;29.27
55424;BME280;41294;42.666;23.350;2022-08-19T10:59:03;94687.41;;;37.75;27.90
55424;BME280;41294;42.666;23.350;2022-08-19T11:01:30;94688.22;;;38.10;28.09
55424;BME280;41294;42.666;23.350;2022-08-19T11:03:56;94680.69;;;38.11;28.16
55424;BME280;41294;42.666;23.350;2022-08-19T11:06:23;94674.91;;;38.05;27.81
55424;BME280;41294;42.666;23.350;2022-08-19T11:08:54;94679.69;;;37.72;29.13
55424;BME280;41294;42.666;23.350;2022-08-19T11:11:21;94675.84;;;37.94;28.77
55424;BME280;41294;42.666;23.350;2022-08-19T11:13:47;94683.03;;;37.86;28.21
55424;BME280;41294;42.666;23.350;2022-08-19T11:16:17;94674.31;;;36.83;28.95
55424;BME280;41294;42.666;23.350;2022-08-19T11:18:46;94675.69;;;35.32;32.00
55424;BME280;41294;42.666;23.350;2022-08-19T11:21:27;94668.28;;;34.83;32.05
55424;BME280;41294;42.666;23.350;2022-08-19T11:23:56;94670.75;;;35.42;30.99
55424;BME280;41294;42.666;23.350;2022-08-19T11:26:24;94675.44;;;35.02;31.48
55424;BME280;41294;42.666;23.350;2022-08-19T11:28:50;94670.63;;;35.14;31.88
55424;BME280;41294;42.666;23.350;2022-08-19T11:31:20;94660.72;;;35.60;30.99
55424;BME280;41294;42.666;23.350;2022-08-19T11:33:46;94663.34;;;36.54;29.92
55424;BME280;41294;42.666;23.350;2022-08-19T11:36:12;94650.75;;;35.94;30.73
55424;BME280;41294;42.666;23.350;2022-08-19T11:38:38;94655.97;;;36.01;30.43
55424;BME280;41294;42.666;23.350;2022-08-19T11:41:06;94652.47;;;36.56;30.39
55424;BME280;41294;42.666;23.350;2022-08-19T11:43:35;94650.09;;;36.64;29.83
55424;BME280;41294;42.666;23.350;2022-08-19T11:46:10;94646.22;;;36.85;29.62
55424;BME280;41294;42.666;23.350;2022-08-19T11:48:36;94643.53;;;37.15;30.33
55424;BME280;41294;42.666;23.350;2022-08-19T11:51:07;94644.16;;;37.45;29.55
55424;BME280;41294;42.666;23.350;2022-08-19T11:53:34;94639.97;;;36.98;29.53
55424;BME280;41294;42.666;23.350;2022-08-19T11:55:59;94642.22;;;36.72;30.08
55424;BME280;41294;42.666;23.350;2022-08-19T11:58:25;94637.94;;;37.13;30.03
55424;BME280;41294;42.666;23.350;2022-08-19T12:00:51;94635.97;;;37.62;29.74
55424;BME280;41294;42.666;23.350;2022-08-19T12:03:17;94631.84;;;37.94;28.93
55424;BME280;41294;42.666;23.350;2022-08-19T12:05:45;94631.75;;;37.92;29.09
55424;BME280;41294;42.666;23.350;2022-08-19T12:08:11;94623.19;;;38.01;29.00
55424;BME280;41294;42.666;23.350;2022-08-19T12:10:38;94626.44;;;38.13;28.65
55424;BME280;41294;42.666;23.350;2022-08-19T12:13:04;94623.13;;;38.17;28.13
55424;BME280;41294;42.666;23.350;2022-08-19T12:15:29;94614.00;;;38.12;27.91
55424;BME280;41294;42.666;23.350;2022-08-19T12:17:56;94612.59;;;37.94;28.00
55424;BME280;41294;42.666;23.350;2022-08-19T12:20:23;94608.78;;;37.37;28.63
55424;BME280;41294;42.666;23.350;2022-08-19T12:22:49;94606.84;;;36.94;29.95
55424;BME280;41294;42.666;23.350;2022-08-19T12:25:16;94599.81;;;36.91;29.74
55424;BME280;41294;42.666;23.350;2022-08-19T12:27:42;94592.72;;;37.16;29.45
55424;BME280;41294;42.666;23.350;2022-08-19T12:30:12;94598.22;;;37.47;29.43
55424;BME280;41294;42.666;23.350;2022-08-19T12:32:38;94594.81;;;37.64;29.28
55424;BME280;41294;42.666;23.350;2022-08-19T12:35:05;94590.53;;;37.44;28.66
55424;BME280;41294;42.666;23.350;2022-08-19T12:37:30;94588.66;;;37.48;29.41
55424;BME280;41294;42.666;23.350;2022-08-19T12:39:57;94587.59;;;37.40;29.41
55424;BME280;41294;42.666;23.350;2022-08-19T12:42:23;94582.28;;;36.82;29.09
55424;BME280;41294;42.666;23.350;2022-08-19T12:44:49;94581.88;;;37.03;29.54
55424;BME280;41294;42.666;23.350;2022-08-19T12:47:16;94577.94;;;37.39;29.60
55424;BME280;41294;42.666;23.350;2022-08-19T12:49:42;94587.22;;;37.47;29.57
55424;BME280;41294;42.666;23.350;2022-08-19T12:52:09;94583.28;;;37.68;29.47
55424;BME280;41294;42.666;23.350;2022-08-19T12:54:36;94574.03;;;37.77;28.80
55424;BME280;41294;42.666;23.350;2022-08-19T12:57:09;94577.84;;;37.85;29.27
55424;BME280;41294;42.666;23.350;2022-08-19T12:59:36;94575.97;;;37.74;29.45
55424;BME280;41294;42.666;23.350;2022-08-19T13:02:03;94576.81;;;37.61;29.21
55424;BME280;41294;42.666;23.350;2022-08-19T13:04:31;94570.66;;;36.68;30.11
55424;BME280;41294;42.666;23.350;2022-08-19T13:06:58;94566.22;;;36.17;30.25
55424;BME280;41294;42.666;23.350;2022-08-19T13:09:23;94569.47;;;36.42;30.23
55424;BME280;41294;42.666;23.350;2022-08-19T13:11:49;94566.97;;;36.04;30.21